createdAt,value
2023-02-15T00:01:42.229Z,24.80
2023-02-15T00:04:10.275Z,19.60
2023-02-15T00:06:37.035Z,19.42
2023-02-15T00:09:04.282Z,18.95
2023-02-15T00:11:49.680Z,16.88
2023-02-15T00:14:21.398Z,18.23
2023-02-15T00:16:49.796Z,21.80
2023-02-15T00:19:18.286Z,17.63
2023-02-15T00:21:45.660Z,19.83
2023-02-15T00:24:14.048Z,20.83
2023-02-15T00:26:42.334Z,15.18
2023-02-15T00:29:10.338Z,19.45
2023-02-15T00:31:37.277Z,19.95
2023-02-15T00:34:11.474Z,20.35
2023-02-15T00:36:38.195Z,20.00
2023-02-15T00:39:05.631Z,19.90
2023-02-15T00:41:33.753Z,23.48
2023-02-15T00:44:00.827Z,20.10
2023-02-15T00:46:30.086Z,23.45
2023-02-15T00:48:56.830Z,21.48
2023-02-15T00:51:23.771Z,19.73
2023-02-15T00:53:50.698Z,20.98
2023-02-15T00:56:17.419Z,20.88
2023-02-15T00:58:44.309Z,23.25
2023-02-15T01:01:14.177Z,23.10
2023-02-15T01:03:42.507Z,19.15
2023-02-15T01:06:11.061Z,23.90
2023-02-15T01:08:38.432Z,21.48
2023-02-15T01:11:14.327Z,20.13
2023-02-15T01:13:41.784Z,19.50
2023-02-15T01:16:08.818Z,21.92
2023-02-15T01:18:36.585Z,20.05
2023-02-15T01:21:24.355Z,23.45
2023-02-15T01:23:51.073Z,22.27
2023-02-15T01:26:18.182Z,17.45
2023-02-15T01:28:45.196Z,20.25
2023-02-15T01:31:15.284Z,21.75
2023-02-15T01:33:42.456Z,19.40
2023-02-15T01:36:10.357Z,22.33
2023-02-15T01:38:40.608Z,24.00
2023-02-15T01:41:26.998Z,22.90
2023-02-15T01:43:57.612Z,18.70
2023-02-15T01:46:46.828Z,22.20
2023-02-15T01:49:18.412Z,18.77
2023-02-15T01:51:46.739Z,19.95
2023-02-15T01:54:22.590Z,17.60
2023-02-15T01:56:49.533Z,16.10
2023-02-15T01:59:21.104Z,20.15
2023-02-15T02:01:51.184Z,23.00
2023-02-15T02:04:32.078Z,23.30
2023-02-15T02:07:00.368Z,21.65
2023-02-15T02:09:27.565Z,18.48
2023-02-15T02:11:55.316Z,23.50
2023-02-15T02:14:23.173Z,19.75
2023-02-15T02:17:16.704Z,27.70
2023-02-15T02:19:56.083Z,23.00
2023-02-15T02:22:28.655Z,23.42
2023-02-15T02:25:26.093Z,18.27
2023-02-15T02:28:10.861Z,19.65
2023-02-15T02:31:07.302Z,21.38
2023-02-15T02:33:50.766Z,21.75
2023-02-15T02:36:23.536Z,23.55
2023-02-15T02:39:06.251Z,23.27
2023-02-15T02:41:42.310Z,26.50
2023-02-15T02:44:25.469Z,23.90
2023-02-15T02:46:59.691Z,32.25
2023-02-15T02:49:34.584Z,23.88
2023-02-15T02:52:03.875Z,25.20
2023-02-15T02:54:31.687Z,26.70
2023-02-15T02:57:02.675Z,28.70
2023-02-15T02:59:37.226Z,21.33
2023-02-15T03:02:16.900Z,22.05
2023-02-15T03:04:50.754Z,25.27
2023-02-15T03:07:22.916Z,20.25
2023-02-15T03:09:56.060Z,26.52
2023-02-15T03:12:28.292Z,24.48
2023-02-15T03:15:19.935Z,24.23
2023-02-15T03:17:51.958Z,22.40
2023-02-15T03:20:26.777Z,22.75
2023-02-15T03:23:01.949Z,20.58
2023-02-15T03:25:44.070Z,24.77
2023-02-15T03:28:17.748Z,26.80
2023-02-15T03:30:48.980Z,22.60
2023-02-15T03:33:16.466Z,23.67
2023-02-15T03:35:53.135Z,22.77
2023-02-15T03:38:25.766Z,34.22
2023-02-15T03:41:11.981Z,26.95
2023-02-15T03:43:46.205Z,22.52
2023-02-15T03:46:29.247Z,28.17
2023-02-15T03:49:01.327Z,23.65
2023-02-15T03:51:37.020Z,23.05
2023-02-15T03:54:14.205Z,23.50
2023-02-15T03:56:42.917Z,22.25
2023-02-15T03:59:28.070Z,22.50
2023-02-15T04:02:28.085Z,23.38
2023-02-15T04:04:54.711Z,28.48
2023-02-15T04:07:21.402Z,21.25
2023-02-15T04:10:06.851Z,22.75
2023-02-15T04:12:33.594Z,23.23
2023-02-15T04:15:18.826Z,23.92
2023-02-15T04:17:45.442Z,23.48
2023-02-15T04:20:30.637Z,21.85
2023-02-15T04:23:16.113Z,21.08
2023-02-15T04:25:42.776Z,25.00
2023-02-15T04:28:09.531Z,21.88
2023-02-15T04:30:36.277Z,28.15
2023-02-15T04:33:02.922Z,29.77
2023-02-15T04:35:29.646Z,28.08
2023-02-15T04:37:56.864Z,19.25
2023-02-15T04:40:23.695Z,19.30
2023-02-15T04:42:50.447Z,20.90
2023-02-15T04:45:18.030Z,26.20
2023-02-15T04:47:45.241Z,27.42
2023-02-15T04:50:12.465Z,22.67
2023-02-15T04:52:39.297Z,22.17
2023-02-15T04:55:06.355Z,23.33
2023-02-15T04:57:33.019Z,18.63
2023-02-15T05:00:00.101Z,25.48
2023-02-15T05:02:26.810Z,24.98
2023-02-15T05:04:53.650Z,24.48
2023-02-15T05:07:21.319Z,21.88
2023-02-15T05:09:48.299Z,24.40
2023-02-15T05:12:14.975Z,24.95
2023-02-15T05:14:41.609Z,23.45
2023-02-15T05:17:08.226Z,26.55
2023-02-15T05:19:34.883Z,23.60
2023-02-15T05:22:01.546Z,27.17
2023-02-15T05:24:46.762Z,23.55
2023-02-15T05:27:32.628Z,25.33
2023-02-15T05:29:59.466Z,27.05
2023-02-15T05:32:26.403Z,25.63
2023-02-15T05:34:53.147Z,23.27
2023-02-15T05:37:19.905Z,23.58
2023-02-15T05:39:46.551Z,25.13
2023-02-15T05:42:13.262Z,23.80
2023-02-15T05:44:39.912Z,21.08
2023-02-15T05:47:08.090Z,24.88
2023-02-15T05:49:35.089Z,23.95
2023-02-15T05:52:02.190Z,23.10
2023-02-15T05:54:29.478Z,25.95
2023-02-15T05:56:56.146Z,25.10
2023-02-15T05:59:22.888Z,23.35
2023-02-15T06:01:49.539Z,26.90
2023-02-15T06:04:16.264Z,25.65
2023-02-15T06:06:42.958Z,21.70
2023-02-15T06:09:14.798Z,23.23
2023-02-15T06:11:41.706Z,26.65
2023-02-15T06:14:08.364Z,23.95
2023-02-15T06:16:35.084Z,27.48
2023-02-15T06:19:02.722Z,30.27
2023-02-15T06:21:31.039Z,21.63
2023-02-15T06:23:57.753Z,22.25
2023-02-15T06:26:24.490Z,25.55
2023-02-15T06:28:51.225Z,23.95
2023-02-15T06:31:18.022Z,23.52
2023-02-15T06:33:44.854Z,30.85
2023-02-15T06:36:11.536Z,26.45
2023-02-15T06:38:38.252Z,30.35
2023-02-15T06:41:04.945Z,32.95
2023-02-15T06:43:31.773Z,27.00
2023-02-15T06:45:59.071Z,27.60
2023-02-15T06:48:27.110Z,31.83
2023-02-15T06:50:53.764Z,27.25
2023-02-15T06:53:20.381Z,27.60
2023-02-15T06:55:47.007Z,25.85
2023-02-15T06:58:13.679Z,29.95
2023-02-15T07:00:40.315Z,29.55
2023-02-15T07:03:07.001Z,28.48
2023-02-15T07:05:35.550Z,21.50
2023-02-15T07:08:02.541Z,23.77
2023-02-15T07:10:29.668Z,28.13
2023-02-15T07:12:56.749Z,29.70
2023-02-15T07:15:23.453Z,32.25
2023-02-15T07:17:50.247Z,26.92
2023-02-15T07:20:20.241Z,33.47
2023-02-15T07:22:47.169Z,21.77
2023-02-15T07:25:14.042Z,30.45
2023-02-15T07:27:41.452Z,25.70
2023-02-15T07:30:10.995Z,26.65
2023-02-15T07:32:37.812Z,25.55
2023-02-15T07:35:04.699Z,31.05
2023-02-15T07:37:31.303Z,28.73
2023-02-15T07:39:58.006Z,26.75
2023-02-15T07:42:24.683Z,27.63
2023-02-15T07:44:51.901Z,30.45
2023-02-15T07:47:18.524Z,32.58
2023-02-15T07:49:46.451Z,28.60
2023-02-15T07:52:13.102Z,29.15
2023-02-15T07:54:39.735Z,34.53
2023-02-15T07:57:06.502Z,24.98
2023-02-15T07:59:33.208Z,29.95
2023-02-15T08:01:59.827Z,25.45
2023-02-15T08:04:26.552Z,29.30
2023-02-15T08:06:55.306Z,27.33
2023-02-15T08:09:22.710Z,28.27
2023-02-15T08:11:49.887Z,30.13
2023-02-15T08:14:21.489Z,31.15
2023-02-15T08:16:53.379Z,27.92
2023-02-15T08:19:23.423Z,32.17
2023-02-15T08:22:02.137Z,31.40
2023-02-15T08:24:31.333Z,26.38
2023-02-15T08:26:58.321Z,28.88
2023-02-15T08:29:28.110Z,30.55
2023-02-15T08:32:02.870Z,33.63
2023-02-15T08:34:31.699Z,29.30
2023-02-15T08:36:58.443Z,29.08
2023-02-15T08:39:25.289Z,31.35
2023-02-15T08:41:52.018Z,31.08
2023-02-15T08:44:20.373Z,27.20
2023-02-15T08:46:48.877Z,27.20
2023-02-15T08:49:22.862Z,26.70
2023-02-15T08:51:50.150Z,29.63
2023-02-15T08:54:19.561Z,25.55
2023-02-15T08:56:46.604Z,26.58
2023-02-15T08:59:17.030Z,26.90
2023-02-15T09:01:44.103Z,27.35
2023-02-15T09:04:11.414Z,23.08
2023-02-15T09:06:39.980Z,29.20
2023-02-15T09:09:07.572Z,29.73
2023-02-15T09:11:37.426Z,29.25
2023-02-15T09:14:10.638Z,25.65
2023-02-15T09:16:39.156Z,27.42
2023-02-15T09:19:07.152Z,28.30
2023-02-15T09:21:36.976Z,27.02
2023-02-15T09:24:06.877Z,32.10
2023-02-15T09:26:36.415Z,29.83
2023-02-15T09:29:04.446Z,28.75
2023-02-15T09:31:38.415Z,28.95
2023-02-15T09:34:05.143Z,27.45
2023-02-15T09:36:37.122Z,27.80
2023-02-15T09:39:13.383Z,27.58
2023-02-15T09:41:58.814Z,25.50
2023-02-15T09:44:52.789Z,26.38
2023-02-15T09:47:41.309Z,31.50
2023-02-15T09:50:38.788Z,32.08
2023-02-15T09:53:34.353Z,26.30
2023-02-15T09:56:13.757Z,25.77
2023-02-15T09:58:48.105Z,23.35
2023-02-15T10:01:14.818Z,21.08
2023-02-15T10:03:51.424Z,23.95
2023-02-15T10:06:42.953Z,21.15
2023-02-15T10:09:40.488Z,22.15
2023-02-15T10:12:32.164Z,21.92
2023-02-15T10:15:27.690Z,20.80
2023-02-15T10:18:03.679Z,20.25
2023-02-15T10:21:03.960Z,23.30
2023-02-15T10:24:08.075Z,21.88
2023-02-15T10:26:47.972Z,22.35
2023-02-15T10:29:37.630Z,22.10
2023-02-15T10:32:07.210Z,25.90
2023-02-15T10:34:40.610Z,23.58
2023-02-15T10:37:16.364Z,23.90
2023-02-15T10:39:55.119Z,24.35
2023-02-15T10:43:00.742Z,24.02
2023-02-15T10:45:52.284Z,21.73
2023-02-15T10:48:47.171Z,21.95
2023-02-15T10:51:51.034Z,22.95
2023-02-15T10:54:47.353Z,25.45
2023-02-15T10:57:39.840Z,22.17
2023-02-15T11:00:40.155Z,24.52
2023-02-15T11:03:33.537Z,21.88
2023-02-15T11:06:06.081Z,25.08
2023-02-15T11:08:37.966Z,24.08
2023-02-15T11:11:16.386Z,24.25
2023-02-15T11:13:52.086Z,22.55
2023-02-15T11:16:25.985Z,24.13
2023-02-15T11:19:06.707Z,27.40
2023-02-15T11:21:39.953Z,24.85
2023-02-15T11:24:16.192Z,23.45
2023-02-15T11:26:57.574Z,26.83
2023-02-15T11:29:34.317Z,24.83
2023-02-15T11:32:12.402Z,22.08
2023-02-15T11:34:47.241Z,25.98
2023-02-15T11:37:18.964Z,24.52
2023-02-15T11:39:46.499Z,25.48
2023-02-15T11:42:18.342Z,25.33
2023-02-15T11:45:21.397Z,28.77
2023-02-15T11:47:48.629Z,26.88
2023-02-15T11:50:19.194Z,22.55
2023-02-15T11:52:45.959Z,21.90
2023-02-15T11:55:20.981Z,26.90
2023-02-15T11:57:57.172Z,25.20
2023-02-15T12:00:43.356Z,26.17
2023-02-15T12:03:25.444Z,24.95
2023-02-15T12:06:01.219Z,25.02
2023-02-15T12:08:40.297Z,25.48
2023-02-15T12:11:26.840Z,21.98
2023-02-15T12:13:58.497Z,27.05
2023-02-15T12:16:27.781Z,29.02
2023-02-15T12:18:58.160Z,26.38
2023-02-15T12:21:34.887Z,26.52
2023-02-15T12:24:10.500Z,25.27
2023-02-15T12:26:38.781Z,25.10
2023-02-15T12:29:18.433Z,26.67
2023-02-15T12:31:47.705Z,28.02
2023-02-15T12:34:27.600Z,22.80
2023-02-15T12:36:58.894Z,23.15
2023-02-15T12:39:28.482Z,23.83
2023-02-15T12:41:55.192Z,26.80
2023-02-15T12:44:27.731Z,25.20
2023-02-15T12:47:08.184Z,27.02
2023-02-15T12:49:39.187Z,23.15
2023-02-15T12:52:21.132Z,25.70
2023-02-15T12:54:48.462Z,22.48
2023-02-15T12:57:26.755Z,26.02
2023-02-15T13:00:01.980Z,27.65
2023-02-15T13:02:45.702Z,21.20
2023-02-15T13:05:24.507Z,28.15
2023-02-15T13:07:54.076Z,30.77
2023-02-15T13:10:25.447Z,27.85
2023-02-15T13:12:55.156Z,25.35
2023-02-15T13:15:30.498Z,24.70
2023-02-15T13:17:59.590Z,26.92
2023-02-15T13:20:28.176Z,23.42
2023-02-15T13:23:03.025Z,23.92
2023-02-15T13:25:41.573Z,25.85
2023-02-15T13:28:13.648Z,24.27
2023-02-15T13:30:45.208Z,26.40
2023-02-15T13:33:18.713Z,26.48
2023-02-15T13:35:57.738Z,24.60
2023-02-15T13:38:24.365Z,23.27
2023-02-15T13:40:59.532Z,27.35
2023-02-15T13:44:11.834Z,21.63
2023-02-15T13:46:56.107Z,22.75
2023-02-15T13:49:37.700Z,24.83
2023-02-15T13:52:10.195Z,24.35
2023-02-15T13:54:47.014Z,28.83
2023-02-15T13:57:33.835Z,23.27
2023-02-15T14:00:17.667Z,24.67
2023-02-15T14:03:10.600Z,25.02
2023-02-15T14:05:49.173Z,20.48
2023-02-15T14:08:33.799Z,23.98
2023-02-15T14:11:15.188Z,22.73
2023-02-15T14:14:02.147Z,24.30
2023-02-15T14:16:46.390Z,24.98
2023-02-15T14:19:46.594Z,29.27
2023-02-15T14:22:24.979Z,23.13
2023-02-15T14:25:10.030Z,27.55
2023-02-15T14:27:55.674Z,22.15
2023-02-15T14:30:27.635Z,24.98
2023-02-15T14:32:59.185Z,21.33
2023-02-15T14:35:28.932Z,28.50
2023-02-15T14:38:01.829Z,25.08
2023-02-15T14:41:02.468Z,28.00
2023-02-15T14:43:38.905Z,20.65
2023-02-15T14:46:37.542Z,20.40
2023-02-15T14:49:24.342Z,26.75
2023-02-15T14:51:51.341Z,22.17
2023-02-15T14:54:18.181Z,25.08
2023-02-15T14:56:45.998Z,22.23
2023-02-15T14:59:17.200Z,22.80
2023-02-15T15:01:53.511Z,22.30
2023-02-15T15:04:45.512Z,17.10
2023-02-15T15:07:25.438Z,21.23
2023-02-15T15:10:27.519Z,27.55
2023-02-15T15:12:55.262Z,27.30
2023-02-15T15:15:28.150Z,22.48
2023-02-15T15:18:10.429Z,23.08
2023-02-15T15:20:51.897Z,25.13
2023-02-15T15:23:21.943Z,22.63
2023-02-15T15:25:53.262Z,24.38
2023-02-15T15:28:52.060Z,20.05
2023-02-15T15:31:33.787Z,26.88
2023-02-15T15:34:19.319Z,20.17
2023-02-15T15:37:26.919Z,21.25
2023-02-15T15:40:18.919Z,25.27
2023-02-15T15:43:11.565Z,21.60
2023-02-15T15:45:44.623Z,25.65
2023-02-15T15:48:31.688Z,23.30
2023-02-15T15:51:01.730Z,26.77
2023-02-15T15:53:32.364Z,27.58
2023-02-15T15:56:05.744Z,21.13
2023-02-15T15:58:34.435Z,24.50
2023-02-15T16:01:14.621Z,24.70
2023-02-15T16:03:55.494Z,25.17
2023-02-15T16:06:38.932Z,26.02
2023-02-15T16:09:18.451Z,19.98
2023-02-15T16:11:48.611Z,23.75
2023-02-15T16:14:29.523Z,27.23
2023-02-15T16:17:00.420Z,21.25
2023-02-15T16:19:31.405Z,22.88
2023-02-15T16:22:01.308Z,22.45
2023-02-15T16:24:52.285Z,25.35
2023-02-15T16:27:23.975Z,25.98
2023-02-15T16:29:50.719Z,23.58
2023-02-15T16:32:28.105Z,28.42
2023-02-15T16:35:01.812Z,25.85
2023-02-15T16:37:33.879Z,26.27
2023-02-15T16:40:01.248Z,32.42
2023-02-15T16:42:28.090Z,25.60
2023-02-15T16:45:14.931Z,28.30
2023-02-15T16:47:44.800Z,30.20
2023-02-15T16:50:23.787Z,30.15
2023-02-15T16:52:52.316Z,25.02
2023-02-15T16:55:27.899Z,22.48
2023-02-15T16:58:06.382Z,29.30
2023-02-15T17:00:37.181Z,24.95
2023-02-15T17:03:20.420Z,23.45
2023-02-15T17:05:49.878Z,27.55
2023-02-15T17:08:17.978Z,29.25
2023-02-15T17:11:05.610Z,30.67
2023-02-15T17:13:32.669Z,30.13
2023-02-15T17:15:59.283Z,26.83
2023-02-15T17:18:28.769Z,33.67
2023-02-15T17:20:59.726Z,29.70
2023-02-15T17:23:34.443Z,29.75
2023-02-15T17:26:12.566Z,27.88
2023-02-15T17:28:57.040Z,28.25
2023-02-15T17:31:29.491Z,33.80
2023-02-15T17:33:57.464Z,35.63
2023-02-15T17:36:29.380Z,32.75
2023-02-15T17:38:59.058Z,29.90
2023-02-15T17:41:28.041Z,36.42
2023-02-15T17:43:54.840Z,34.42
2023-02-15T17:46:24.344Z,35.97
2023-02-15T17:48:54.619Z,33.50
2023-02-15T17:51:22.447Z,32.30
2023-02-15T17:54:08.214Z,25.75
2023-02-15T17:56:36.798Z,27.25
2023-02-15T17:59:07.452Z,24.95
2023-02-15T18:02:02.454Z,24.00
2023-02-15T18:04:47.631Z,31.60
2023-02-15T18:07:34.017Z,25.48
2023-02-15T18:10:19.365Z,33.05
2023-02-15T18:12:45.995Z,26.25
2023-02-15T18:15:13.822Z,28.17
2023-02-15T18:17:46.302Z,29.80
2023-02-15T18:20:21.040Z,29.23
2023-02-15T18:22:48.186Z,36.50
2023-02-15T18:25:16.833Z,32.55
2023-02-15T18:27:43.932Z,32.47
2023-02-15T18:30:23.171Z,40.30
2023-02-15T18:32:53.922Z,60.28
2023-02-15T18:35:24.343Z,39.58
2023-02-15T18:37:53.293Z,30.77
2023-02-15T18:40:26.361Z,26.50
2023-02-15T18:42:53.887Z,22.83
2023-02-15T18:45:32.224Z,27.80
2023-02-15T18:47:59.008Z,23.17
2023-02-15T18:50:30.010Z,30.75
2023-02-15T18:52:56.842Z,25.65
2023-02-15T18:55:28.634Z,32.75
2023-02-15T18:57:58.614Z,25.10
2023-02-15T19:00:30.431Z,25.85
2023-02-15T19:02:57.578Z,21.58
2023-02-15T19:05:27.448Z,27.48
2023-02-15T19:07:55.056Z,27.20
2023-02-15T19:10:24.563Z,25.63
2023-02-15T19:12:52.887Z,24.48
2023-02-15T19:15:24.948Z,27.20
2023-02-15T19:17:52.476Z,29.33
2023-02-15T19:20:36.175Z,26.67
2023-02-15T19:23:03.489Z,20.55
2023-02-15T19:25:34.125Z,24.25
2023-02-15T19:28:03.583Z,23.80
2023-02-15T19:30:32.349Z,25.30
2023-02-15T19:32:59.786Z,23.42
2023-02-15T19:35:31.195Z,20.77
2023-02-15T19:38:00.599Z,24.20
2023-02-15T19:40:32.974Z,25.38
2023-02-15T19:43:00.029Z,23.02
2023-02-15T19:45:31.378Z,25.83
2023-02-15T19:48:00.457Z,29.45
2023-02-15T19:50:33.047Z,22.55
2023-02-15T19:53:01.170Z,20.52
2023-02-15T19:55:38.150Z,24.40
2023-02-15T19:58:11.894Z,25.45
2023-02-15T20:00:39.061Z,24.02
2023-02-15T20:03:05.942Z,17.52
2023-02-15T20:05:35.013Z,21.75
2023-02-15T20:08:04.020Z,28.73
2023-02-15T20:10:32.010Z,24.88
2023-02-15T20:12:58.937Z,25.73
2023-02-15T20:15:31.421Z,23.73
2023-02-15T20:17:59.756Z,25.42
2023-02-15T20:20:42.827Z,23.08
2023-02-15T20:23:20.122Z,22.20
2023-02-15T20:25:47.276Z,24.83
2023-02-15T20:28:17.477Z,28.85
2023-02-15T20:30:44.365Z,35.00
2023-02-15T20:33:11.529Z,36.33
2023-02-15T20:35:38.327Z,37.28
2023-02-15T20:38:05.477Z,35.75
2023-02-15T20:40:35.611Z,29.65
2023-02-15T20:43:02.581Z,29.33
2023-02-15T20:45:31.761Z,30.38
2023-02-15T20:47:59.226Z,30.27
2023-02-15T20:50:31.493Z,28.30
2023-02-15T20:53:00.100Z,22.65
2023-02-15T20:55:29.487Z,20.40
2023-02-15T20:57:56.694Z,24.40
2023-02-15T21:00:26.048Z,26.35
2023-02-15T21:02:56.501Z,22.15
2023-02-15T21:05:24.433Z,27.02
2023-02-15T21:07:52.320Z,19.27
2023-02-15T21:10:25.863Z,22.35
2023-02-15T21:12:53.258Z,18.40
2023-02-15T21:15:32.869Z,20.60
2023-02-15T21:18:01.689Z,20.88
2023-02-15T21:20:30.228Z,19.90
2023-02-15T21:22:59.646Z,21.45
2023-02-15T21:25:34.822Z,19.17
2023-02-15T21:28:02.271Z,20.70
2023-02-15T21:30:29.504Z,26.48
2023-02-15T21:32:56.210Z,20.13
2023-02-15T21:35:23.104Z,20.48
2023-02-15T21:37:52.388Z,21.85
2023-02-15T21:40:29.530Z,25.88
2023-02-15T21:43:16.542Z,24.08
2023-02-15T21:46:02.606Z,23.38
2023-02-15T21:48:29.283Z,23.15
2023-02-15T21:51:14.493Z,28.02
2023-02-15T21:53:46.069Z,27.13
2023-02-15T21:56:18.900Z,24.35
2023-02-15T21:58:45.662Z,22.10
2023-02-15T22:01:32.891Z,21.58
2023-02-15T22:03:59.635Z,22.75
2023-02-15T22:06:26.389Z,24.90
2023-02-15T22:08:53.214Z,22.92
2023-02-15T22:11:22.521Z,17.85
2023-02-15T22:13:50.389Z,18.40
2023-02-15T22:16:20.000Z,29.25
2023-02-15T22:18:47.930Z,22.23
2023-02-15T22:21:16.642Z,21.83
2023-02-15T22:23:43.727Z,20.83
2023-02-15T22:26:24.045Z,20.20
2023-02-15T22:28:51.122Z,22.23
2023-02-15T22:31:21.470Z,21.67
2023-02-15T22:33:49.763Z,23.00
2023-02-15T22:36:28.130Z,23.70
2023-02-15T22:38:55.321Z,30.73
2023-02-15T22:41:25.952Z,34.83
2023-02-15T22:43:52.870Z,29.45
2023-02-15T22:46:23.007Z,29.90
2023-02-15T22:48:50.232Z,27.77
2023-02-15T22:51:19.981Z,35.88
2023-02-15T22:53:49.413Z,29.35
2023-02-15T22:56:21.274Z,34.10
2023-02-15T22:58:50.207Z,28.80
2023-02-15T23:01:34.943Z,30.00
2023-02-15T23:04:03.971Z,28.80
2023-02-15T23:06:31.369Z,29.52
2023-02-15T23:09:00.615Z,36.42
2023-02-15T23:11:27.380Z,32.40
2023-02-15T23:13:54.304Z,32.55
2023-02-15T23:16:21.021Z,26.67
2023-02-15T23:18:49.185Z,30.98
2023-02-15T23:21:21.805Z,28.80
2023-02-15T23:23:52.092Z,25.48
2023-02-15T23:26:23.270Z,27.05
2023-02-15T23:28:51.426Z,28.15
2023-02-15T23:31:21.775Z,25.13
2023-02-15T23:33:49.563Z,30.23
2023-02-15T23:36:26.258Z,35.53
2023-02-15T23:38:54.917Z,35.38
2023-02-15T23:41:28.964Z,37.92
2023-02-15T23:43:59.202Z,31.48
2023-02-15T23:46:47.053Z,32.15
2023-02-15T23:49:17.022Z,45.47
2023-02-15T23:51:48.921Z,35.08
2023-02-15T23:54:17.401Z,35.72
2023-02-15T23:56:46.856Z,39.25
2023-02-15T23:59:19.328Z,44.65
